Terminal Aerodrome Forecast
Issued by NWS Charleston, WV

Home | Current Version | Previous Version | Text Only | Print | Product List | Glossary On
Versions: 1 2 3 4 5 6 7 8 9 10 11 12 13 14 15 16 17 18 19 20 21 22 23 24 25
792
FTUS41 KRLX 262320
TAFEKN
TAF
KEKN 262320Z 2700/2724 00000KT P6SM SKC
     FM270900 00000KT P6SM OVC080
     FM271600 23006KT P6SM OVC080
     FM272300 17005KT P6SM BKN090=

USA.gov is the U.S. government's official web portal to all federal, state and local government web resources and services.